Time;durP1;ratioP1;P1;durP2;ratioP2;P2;SDS_P1;SDS_P2;PMS_P1;PMS_P2;Temp;Humidity;BMP_temperature;BMP_pressure;BME280_temperature;BME280_humidity;BME280_pressure;Samples;Min_cycle;Max_cycle;Signal;HPM_P1;HPM_P2
2024/02/24 00:02:18;;;;;;;4.22;1.33;;;;;;;6.37;100.00;99316.53;5280127;28;20023;-77
2024/02/24 00:04:50;;;;;;;2.88;0.90;;;;;;;6.26;100.00;99298.50;5282533;28;20400;-77
2024/02/24 00:07:22;;;;;;;1.48;0.80;;;;;;;6.36;100.00;99316.66;5281023;28;20068;-77
2024/02/24 00:09:54;;;;;;;3.42;1.00;;;;;;;6.25;100.00;99305.47;5282134;28;20039;-77
2024/02/24 00:12:26;;;;;;;2.00;0.90;;;;;;;6.32;100.00;99319.53;5284426;28;20032;-77
2024/02/24 00:14:58;;;;;;;5.15;1.17;;;;;;;6.33;100.00;99315.19;5283864;28;20203;-77
2024/02/24 00:17:30;;;;;;;2.95;1.10;;;;;;;6.33;100.00;99308.19;5283324;28;20345;-77
2024/02/24 00:20:03;;;;;;;3.08;1.38;;;;;;;6.28;100.00;99307.78;5282184;28;20043;-77
2024/02/24 00:22:35;;;;;;;3.13;1.50;;;;;;;6.29;100.00;99313.81;5281929;28;20032;-77
2024/02/24 00:25:07;;;;;;;2.63;1.33;;;;;;;6.28;100.00;99312.16;5282428;28;20058;-77
2024/02/24 00:27:39;;;;;;;3.35;1.50;;;;;;;6.17;100.00;99299.31;5281053;28;20032;-77
2024/02/24 00:30:13;;;;;;;1.98;1.05;;;;;;;6.22;100.00;99315.34;5281835;28;20058;-77
2024/02/24 00:32:45;;;;;;;3.63;1.35;;;;;;;6.24;100.00;99321.19;5281956;28;20062;-77
2024/02/24 00:35:16;;;;;;;2.88;1.30;;;;;;;6.25;100.00;99318.47;5280861;28;20037;-77
2024/02/24 00:37:48;;;;;;;2.33;1.25;;;;;;;6.20;100.00;99312.84;5267323;28;20042;-77
2024/02/24 00:40:20;;;;;;;1.67;1.00;;;;;;;6.23;100.00;99317.78;5283279;28;20040;-77
2024/02/24 00:42:52;;;;;;;3.80;1.25;;;;;;;6.25;100.00;99317.63;5282929;28;20036;-76
2024/02/24 00:45:24;;;;;;;2.42;1.40;;;;;;;6.24;100.00;99318.59;5281413;28;20046;-77
2024/02/24 00:47:56;;;;;;;2.92;1.58;;;;;;;6.24;100.00;99318.59;5272386;28;20369;-78
2024/02/24 00:50:28;;;;;;;2.45;1.40;;;;;;;6.23;100.00;99317.78;5283003;28;20033;-78
2024/02/24 00:53:00;;;;;;;3.72;1.42;;;;;;;6.25;100.00;99325.44;5283211;28;20036;-78
2024/02/24 00:55:32;;;;;;;3.33;1.20;;;;;;;6.20;100.00;99319.84;5283847;28;20034;-78
2024/02/24 00:58:04;;;;;;;3.60;1.40;;;;;;;6.20;100.00;99318.06;5282588;28;20034;-78
2024/02/24 01:00:36;;;;;;;3.33;1.30;;;;;;;6.15;100.00;99311.66;5281921;28;20493;-78
2024/02/24 01:03:08;;;;;;;2.75;1.20;;;;;;;6.13;100.00;99324.75;5280453;28;20040;-78
2024/02/24 01:05:41;;;;;;;4.47;2.05;;;;;;;6.08;100.00;99324.38;5281337;28;20032;-78
2024/02/24 01:08:13;;;;;;;3.97;1.42;;;;;;;6.09;100.00;99320.81;5279913;28;20027;-78
2024/02/24 01:10:45;;;;;;;2.97;1.27;;;;;;;6.08;100.00;99329.56;5280918;28;20482;-78
2024/02/24 01:13:17;;;;;;;1.90;1.08;;;;;;;6.10;100.00;99327.66;5283322;28;20032;-78
2024/02/24 01:15:49;;;;;;;2.75;1.10;;;;;;;6.05;100.00;99330.66;5283581;28;20032;-78
2024/02/24 01:18:22;;;;;;;3.03;1.10;;;;;;;6.06;100.00;99332.31;5279248;28;20047;-78
2024/02/24 01:20:54;;;;;;;1.90;0.82;;;;;;;6.06;100.00;99334.06;5281689;28;20047;-78
2024/02/24 01:23:26;;;;;;;3.65;1.17;;;;;;;6.06;100.00;99334.06;5283416;28;20046;-78
2024/02/24 01:25:58;;;;;;;2.13;1.02;;;;;;;6.05;100.00;99319.44;5282487;28;20028;-78
2024/02/24 01:28:30;;;;;;;1.70;0.98;;;;;;;6.04;100.00;99328.22;5283046;28;20032;-77
2024/02/24 01:31:02;;;;;;;2.40;1.00;;;;;;;5.99;100.00;99331.22;5282506;28;20028;-78
2024/02/24 01:33:34;;;;;;;3.38;1.10;;;;;;;6.01;100.00;99329.28;5279454;28;20032;-78
2024/02/24 01:36:06;;;;;;;2.53;1.08;;;;;;;5.91;100.00;99315.47;5281450;28;20038;-78
2024/02/24 01:38:38;;;;;;;2.50;1.00;;;;;;;6.01;100.00;99320.69;5278791;28;20698;-78
2024/02/24 01:41:10;;;;;;;2.50;1.08;;;;;;;6.00;100.00;99321.66;5282587;28;20034;-78
2024/02/24 01:43:42;;;;;;;2.80;1.00;;;;;;;6.00;100.00;99319.88;5281630;28;20085;-78
2024/02/24 01:46:15;;;;;;;3.47;1.10;;;;;;;5.97;100.00;99322.75;5282395;28;20038;-78
2024/02/24 01:48:47;;;;;;;3.25;1.20;;;;;;;6.04;100.00;99326.44;5278308;28;20717;-78
2024/02/24 01:51:18;;;;;;;3.42;1.27;;;;;;;6.04;100.00;99323.81;5280296;28;20043;-78
2024/02/24 01:53:50;;;;;;;1.98;1.02;;;;;;;6.04;100.00;99323.81;5281876;28;20036;-78
2024/02/24 01:56:24;;;;;;;2.67;0.95;;;;;;;6.08;100.00;99330.38;5283081;28;20498;-78
2024/02/24 01:58:56;;;;;;;2.15;0.90;;;;;;;6.05;100.00;99333.25;5279211;28;20024;-78
2024/02/24 02:01:29;;;;;;;1.52;0.73;;;;;;;6.02;100.00;99330.97;5277846;28;20035;-78
2024/02/24 02:04:00;;;;;;;2.55;0.93;;;;;;;6.07;100.00;99333.97;5282618;28;20477;-78
2024/02/24 02:06:32;;;;;;;2.97;0.85;;;;;;;6.06;100.00;99336.69;5281848;28;20039;-78
2024/02/24 02:09:04;;;;;;;2.50;0.98;;;;;;;6.04;100.00;99330.81;5281699;28;20059;-78
2024/02/24 02:11:36;;;;;;;1.35;0.60;;;;;;;6.07;100.00;99335.75;5281392;28;20059;-78
2024/02/24 02:14:11;;;;;;;1.77;0.90;;;;;;;6.11;100.00;99336.28;5279574;28;20031;-78
2024/02/24 02:16:43;;;;;;;1.90;0.90;;;;;;;6.15;100.00;99345.44;5281601;28;20454;-78
2024/02/24 02:19:15;;;;;;;2.00;1.00;;;;;;;6.20;100.00;99351.84;5276331;28;20033;-78
2024/02/24 02:21:49;;;;;;;2.15;0.77;;;;;;;6.18;100.00;99353.78;5282037;28;20710;-78
2024/02/24 02:24:21;;;;;;;2.65;0.98;;;;;;;6.16;100.00;99344.47;5281824;28;20039;-78
2024/02/24 02:26:53;;;;;;;1.92;1.00;;;;;;;6.25;100.00;99357.47;5282309;28;20596;-78
2024/02/24 02:29:25;;;;;;;2.38;0.93;;;;;;;6.25;100.00;99354.88;5280561;28;20582;-78
2024/02/24 02:31:57;;;;;;;2.92;0.98;;;;;;;6.28;100.00;99356.38;5279515;28;20024;-78
2024/02/24 02:34:29;;;;;;;1.27;0.50;;;;;;;6.32;100.00;99353.34;5282177;28;20031;-78
2024/02/24 02:37:01;;;;;;;1.85;0.90;;;;;;;6.28;100.00;99354.59;5275924;28;20525;-78
2024/02/24 02:39:33;;;;;;;2.30;0.82;;;;;;;6.28;100.00;99348.56;5273813;28;20040;-78
2024/02/24 02:42:06;;;;;;;3.22;1.20;;;;;;;6.39;100.00;99358.81;5280443;28;20098;-78
2024/02/24 02:44:38;;;;;;;2.08;0.80;;;;;;;6.43;100.00;99365.38;5271493;28;20047;-78
2024/02/24 02:47:11;;;;;;;2.22;0.85;;;;;;;6.41;100.00;99358.69;5257026;28;20040;-78
2024/02/24 02:49:42;;;;;;;2.50;0.98;;;;;;;6.46;100.00;99364.28;5275094;28;20032;-78
2024/02/24 02:52:15;;;;;;;3.17;0.93;;;;;;;6.44;100.00;99359.22;5277992;28;20040;-78
2024/02/24 02:54:46;;;;;;;2.00;0.95;;;;;;;6.41;100.00;99363.91;5284247;28;20567;-78
2024/02/24 02:57:18;;;;;;;2.40;0.80;;;;;;;6.41;100.00;99369.09;5286376;28;20810;-78
2024/02/24 02:59:50;;;;;;;2.53;0.70;;;;;;;6.42;100.00;99370.72;5265141;28;21076;-78
2024/02/24 03:02:22;;;;;;;1.92;0.80;;;;;;;6.40;100.00;99363.03;5285757;28;20036;-78
2024/02/24 03:04:54;;;;;;;2.05;0.80;;;;;;;6.38;100.00;99364.97;5285684;28;20032;-78
2024/02/24 03:07:26;;;;;;;2.83;1.20;;;;;;;6.35;100.00;99357.44;5285574;28;20539;-78
2024/02/24 03:09:58;;;;;;;1.52;0.75;;;;;;;6.34;100.00;99364.44;5283914;28;20389;-78
2024/02/24 03:12:30;;;;;;;2.50;0.90;;;;;;;6.34;100.00;99361.03;5285645;28;20032;-78
2024/02/24 03:15:02;;;;;;;1.67;0.70;;;;;;;6.36;100.00;99360.88;5284149;28;20039;-78
2024/02/24 03:17:34;;;;;;;1.63;1.00;;;;;;;6.26;100.00;99342.69;5285621;28;20040;-78
2024/02/24 03:20:08;;;;;;;2.22;1.10;;;;;;;6.33;100.00;99365.41;5282288;28;20043;-78
2024/02/24 03:22:40;;;;;;;2.88;1.00;;;;;;;6.33;100.00;99362.81;5285070;28;20493;-78
2024/02/24 03:25:12;;;;;;;1.63;0.88;;;;;;;6.27;100.00;99352.94;5285857;28;20286;-78
2024/02/24 03:27:44;;;;;;;1.92;1.00;;;;;;;6.32;100.00;99363.75;5285998;28;20031;-78
2024/02/24 03:30:16;;;;;;;2.13;1.13;;;;;;;6.36;100.00;99361.69;5284275;28;20397;-77
2024/02/24 03:32:48;;;;;;;3.80;1.10;;;;;;;6.39;100.00;99366.63;5285065;28;20032;-78
2024/02/24 03:35:19;;;;;;;1.88;0.85;;;;;;;6.40;100.00;99365.66;5285536;28;20046;-77
2024/02/24 03:37:51;;;;;;;2.60;1.38;;;;;;;6.28;100.00;99349.38;5284844;28;20032;-78
2024/02/24 03:40:23;;;;;;;2.92;1.50;;;;;;;6.39;100.00;99365.81;5284363;28;20028;-77
2024/02/24 03:42:55;;;;;;;2.00;1.10;;;;;;;6.39;100.00;99366.63;5285005;28;20487;-78
2024/02/24 03:45:27;;;;;;;1.85;1.20;;;;;;;6.39;100.00;99365.81;5284792;28;20397;-77
2024/02/24 03:47:59;;;;;;;2.80;1.20;;;;;;;6.40;100.00;99370.84;5281731;28;20043;-77
2024/02/24 03:50:31;;;;;;;3.05;1.10;;;;;;;6.42;100.00;99366.34;5285310;28;20038;-77
2024/02/24 03:53:03;;;;;;;2.58;0.90;;;;;;;6.41;100.00;99369.91;5282954;28;20043;-77
2024/02/24 03:55:35;;;;;;;2.58;1.17;;;;;;;6.42;100.00;99365.53;5283017;28;20040;-77
2024/02/24 03:58:07;;;;;;;2.08;1.20;;;;;;;6.41;100.00;99363.91;5263486;28;20036;-78
2024/02/24 04:00:39;;;;;;;2.20;1.10;;;;;;;6.40;100.00;99362.22;5262909;28;20039;-77
2024/02/24 04:03:11;;;;;;;1.90;1.15;;;;;;;6.38;100.00;99362.38;5260386;28;20037;-77
2024/02/24 04:05:44;;;;;;;1.88;0.93;;;;;;;6.38;100.00;99370.19;5263134;28;20586;-78
2024/02/24 04:08:15;;;;;;;1.67;0.90;;;;;;;6.40;100.00;99373.44;5262850;28;20035;-78
2024/02/24 04:10:47;;;;;;;2.20;0.95;;;;;;;6.35;100.00;99370.47;5259647;28;20396;-77
2024/02/24 04:13:22;;;;;;;2.55;1.20;;;;;;;6.38;100.00;99374.56;5259209;28;20043;-77
2024/02/24 04:15:54;;;;;;;3.17;1.52;;;;;;;6.36;100.00;99372.09;5261481;28;20141;-77
2024/02/24 04:18:26;;;;;;;2.45;1.20;;;;;;;6.35;100.00;99386.06;5264539;28;20044;-77
2024/02/24 04:20:58;;;;;;;1.50;1.02;;;;;;;6.31;100.00;99380.31;5263721;28;20040;-77
2024/02/24 04:23:30;;;;;;;3.00;1.10;;;;;;;6.30;100.00;99393.47;5261776;28;20035;-77
2024/02/24 04:26:02;;;;;;;2.00;1.48;;;;;;;6.31;100.00;99395.09;5261599;28;20032;-77
2024/02/24 04:28:33;;;;;;;1.83;1.23;;;;;;;6.32;100.00;99389.75;5261998;28;20040;-77
2024/02/24 04:31:05;;;;;;;1.75;1.10;;;;;;;6.36;100.00;99394.69;5262014;28;20147;-77
2024/02/24 04:33:37;;;;;;;2.30;1.00;;;;;;;6.38;100.00;99396.19;5260866;28;20047;-77
2024/02/24 04:36:09;;;;;;;2.13;1.20;;;;;;;6.35;100.00;99386.06;5264452;28;20036;-77
2024/02/24 04:38:41;;;;;;;1.83;1.10;;;;;;;6.46;100.00;99401.53;5261380;28;20035;-77
2024/02/24 04:41:13;;;;;;;3.72;1.60;;;;;;;6.51;100.00;99412.31;5261557;28;20179;-77
2024/02/24 04:43:45;;;;;;;2.80;1.50;;;;;;;6.49;100.00;99406.44;5259287;28;20488;-77
2024/02/24 04:46:17;;;;;;;2.53;1.38;;;;;;;6.58;100.00;99410.81;5261819;28;20028;-77
2024/02/24 04:48:49;;;;;;;2.78;1.27;;;;;;;6.53;100.00;99415.63;5262714;28;20032;-78
2024/02/24 04:51:20;;;;;;;2.30;0.90;;;;;;;6.55;100.00;99416.31;5260369;28;20043;-77
2024/02/24 04:53:52;;;;;;;3.05;1.05;;;;;;;6.56;100.00;99420.56;5260531;28;20054;-77
2024/02/24 04:56:25;;;;;;;2.63;1.42;;;;;;;6.61;100.00;99416.72;5269026;28;20052;-77
2024/02/24 04:58:57;;;;;;;2.95;1.10;;;;;;;6.62;100.00;99420.94;5280893;28;20051;-78
2024/02/24 05:01:29;;;;;;;3.00;1.40;;;;;;;6.58;100.00;99426.41;5281540;28;20029;-78
2024/02/24 05:04:02;;;;;;;2.95;1.13;;;;;;;6.56;100.00;99425.75;5281181;28;20044;-78
2024/02/24 05:06:34;;;;;;;1.95;1.15;;;;;;;6.57;100.00;99422.19;5284185;28;20036;-78
2024/02/24 05:09:08;;;;;;;3.35;1.50;;;;;;;6.58;100.00;99434.22;5277127;28;20051;-77
2024/02/24 05:11:40;;;;;;;2.10;1.08;;;;;;;6.58;100.00;99431.63;5282137;28;20039;-78
2024/02/24 05:14:12;;;;;;;2.05;1.30;;;;;;;6.58;100.00;99428.22;5275183;28;20140;-77
2024/02/24 05:16:44;;;;;;;2.67;1.50;;;;;;;6.55;100.00;99434.53;5283258;28;20036;-78
2024/02/24 05:19:16;;;;;;;1.73;1.00;;;;;;;6.58;100.00;99433.41;5279159;28;20402;-77
2024/02/24 05:21:48;;;;;;;1.48;0.93;;;;;;;6.56;100.00;99430.13;5283112;28;20035;-77
2024/02/24 05:24:20;;;;;;;3.90;1.52;;;;;;;6.62;100.00;99439.16;5282032;28;20465;-78
2024/02/24 05:26:52;;;;;;;2.38;1.50;;;;;;;6.64;100.00;99437.25;5281601;28;20531;-78
2024/02/24 05:29:24;;;;;;;2.28;1.30;;;;;;;6.64;100.00;99432.88;5280632;28;20389;-78
2024/02/24 05:31:56;;;;;;;3.58;1.25;;;;;;;6.61;100.00;99440.13;5281181;28;20203;-77
2024/02/24 05:34:28;;;;;;;2.08;1.33;;;;;;;6.57;100.00;99440.41;5282044;28;20042;-77
2024/02/24 05:37:00;;;;;;;2.63;1.27;;;;;;;6.54;100.00;99443.28;5282748;28;20093;-77
2024/02/24 05:39:31;;;;;;;2.60;1.17;;;;;;;6.52;100.00;99447.00;5282284;28;20413;-77
2024/02/24 05:42:05;;;;;;;3.33;1.30;;;;;;;6.53;100.00;99446.03;5280312;28;20024;-77
2024/02/24 05:44:37;;;;;;;3.08;1.15;;;;;;;6.51;100.00;99451.34;5281325;28;20303;-78
2024/02/24 05:47:09;;;;;;;4.53;1.38;;;;;;;6.39;100.00;99439.44;5278809;28;20055;-77
2024/02/24 05:49:41;;;;;;;1.73;1.10;;;;;;;6.53;100.00;99462.47;5281251;28;20034;-77
2024/02/24 05:52:13;;;;;;;4.03;1.92;;;;;;;6.54;100.00;99463.28;5282082;28;20037;-78
2024/02/24 05:54:45;;;;;;;2.55;1.25;;;;;;;6.54;100.00;99464.09;5281717;28;20388;-77
2024/02/24 05:57:17;;;;;;;2.13;1.10;;;;;;;6.57;100.00;99473.41;5283006;28;20051;-77
2024/02/24 05:59:49;;;;;;;3.22;1.23;;;;;;;6.57;100.00;99470.81;5281359;28;20501;-78
2024/02/24 06:02:20;;;;;;;2.95;1.48;;;;;;;6.67;100.00;99474.22;5279397;28;20385;-77
2024/02/24 06:04:52;;;;;;;3.28;1.38;;;;;;;6.70;100.00;99476.53;5280805;28;20035;-77
2024/02/24 06:07:24;;;;;;;3.50;1.50;;;;;;;6.71;100.00;99474.78;5282686;28;20034;-77
2024/02/24 06:09:56;;;;;;;2.80;1.48;;;;;;;6.68;100.00;99470.66;5281442;28;20022;-78
2024/02/24 06:12:28;;;;;;;2.60;1.50;;;;;;;6.46;100.00;99476.16;5279377;28;20040;-78
2024/02/24 06:15:00;;;;;;;3.75;1.17;;;;;;;6.38;100.00;99478.63;5279076;28;20041;-77
2024/02/24 06:17:32;;;;;;;2.72;1.60;;;;;;;6.36;100.00;99475.31;5280389;28;20501;-78
2024/02/24 06:20:04;;;;;;;2.40;1.20;;;;;;;6.36;100.00;99481.34;5281524;28;20036;-77
2024/02/24 06:22:36;;;;;;;2.78;1.38;;;;;;;6.36;100.00;99481.34;5282202;28;20039;-78
2024/02/24 06:25:10;;;;;;;2.85;1.38;;;;;;;6.30;100.00;99476.69;5282768;28;20036;-77
2024/02/24 06:27:42;;;;;;;2.55;1.42;;;;;;;6.35;100.00;99484.91;5281029;28;20055;-77
2024/02/24 06:30:14;;;;;;;2.00;1.30;;;;;;;6.34;100.00;99489.28;5275606;28;20025;-76
2024/02/24 06:32:46;;;;;;;3.33;1.70;;;;;;;6.35;100.00;99487.50;5287434;28;20276;-76
2024/02/24 06:35:18;;;;;;;3.83;1.23;;;;;;;6.32;100.00;99483.38;5281710;28;20032;-76
2024/02/24 06:37:50;;;;;;;3.80;1.60;;;;;;;6.34;100.00;99491.06;5287200;28;20032;-76
2024/02/24 06:40:21;;;;;;;3.28;1.30;;;;;;;6.32;100.00;99491.19;5284484;28;20073;-77
2024/02/24 06:42:54;;;;;;;3.05;1.80;;;;;;;6.32;100.00;99499.00;5284931;28;20502;-76
2024/02/24 06:45:26;;;;;;;4.28;1.50;;;;;;;6.28;100.00;99500.22;5283952;28;20504;-76
2024/02/24 06:47:58;;;;;;;3.70;1.65;;;;;;;6.31;100.00;99504.34;5286362;28;20038;-76
2024/02/24 06:50:29;;;;;;;3.40;1.33;;;;;;;6.31;100.00;99504.34;5280187;28;20481;-77
2024/02/24 06:53:01;;;;;;;4.28;1.65;;;;;;;6.31;100.00;99509.53;5286086;28;20048;-76
2024/02/24 06:55:33;;;;;;;2.63;1.55;;;;;;;6.33;100.00;99507.66;5282355;28;20028;-76
2024/02/24 06:58:05;;;;;;;3.35;1.40;;;;;;;6.33;100.00;99518.88;5284988;28;20117;-76
2024/02/24 07:00:37;;;;;;;3.90;1.20;;;;;;;6.34;100.00;99517.09;5283028;28;20038;-76
2024/02/24 07:03:09;;;;;;;2.50;1.30;;;;;;;6.33;100.00;99520.66;5282589;28;20032;-76
2024/02/24 07:05:41;;;;;;;3.55;1.58;;;;;;;6.32;100.00;99524.19;5285399;28;20469;-77
2024/02/24 07:08:13;;;;;;;3.88;1.40;;;;;;;6.34;100.00;99530.09;5284129;28;20032;-76
2024/02/24 07:10:45;;;;;;;3.08;1.27;;;;;;;6.31;100.00;99536.38;5282780;28;20035;-76
2024/02/24 07:13:17;;;;;;;2.78;1.10;;;;;;;6.32;100.00;99530.22;5283327;28;20035;-76
2024/02/24 07:15:49;;;;;;;2.25;1.40;;;;;;;6.32;100.00;99537.19;5285548;28;20478;-76
2024/02/24 07:18:21;;;;;;;2.08;1.33;;;;;;;6.33;100.00;99538.88;5271870;28;20448;-77
2024/02/24 07:20:52;;;;;;;2.20;1.20;;;;;;;6.31;100.00;99543.34;5284846;28;20077;-77
2024/02/24 07:23:24;;;;;;;2.78;1.27;;;;;;;6.29;100.00;99542.69;5284048;28;20043;-77
2024/02/24 07:25:59;;;;;;;2.80;1.23;;;;;;;6.34;100.00;99543.91;5284742;28;20032;-77
2024/02/24 07:28:31;;;;;;;4.32;1.30;;;;;;;6.34;100.00;99537.91;5283764;28;20035;-76
2024/02/24 07:31:03;;;;;;;4.38;1.30;;;;;;;6.33;100.00;99550.09;5283458;28;20284;-76
2024/02/24 07:33:35;;;;;;;2.10;1.38;;;;;;;6.28;100.00;99541.84;5283236;28;20389;-77
2024/02/24 07:36:07;;;;;;;2.38;1.42;;;;;;;6.34;100.00;99558.69;5283979;28;20032;-76
2024/02/24 07:38:39;;;;;;;2.58;1.25;;;;;;;6.39;100.00;99568.69;5283803;28;20032;-76
2024/02/24 07:41:11;;;;;;;2.85;1.33;;;;;;;6.43;100.00;99573.50;5280636;28;20323;-77
2024/02/24 07:43:43;;;;;;;2.30;1.20;;;;;;;6.50;100.00;99585.00;5273037;28;20059;-77
2024/02/24 07:46:27;;;;;;;2.58;1.30;;;;;;;6.61;100.00;99589.28;5280703;28;20046;-76
2024/02/24 07:49:00;;;;;;;7.82;1.50;;;;;;;6.54;100.00;99602.00;5283710;28;20429;-77
2024/02/24 07:51:34;;;;;;;2.38;1.20;;;;;;;6.39;100.00;99605.94;5283518;28;20397;-77
2024/02/24 07:54:05;;;;;;;4.40;1.90;;;;;;;6.23;100.00;99618.63;5283414;28;20473;-77
2024/02/24 07:56:37;;;;;;;3.13;1.95;;;;;;;6.16;100.00;99625.31;5283600;28;20046;-76
2024/02/24 07:59:09;;;;;;;4.13;2.15;;;;;;;6.05;100.00;99629.66;5282339;28;20047;-77
2024/02/24 08:01:41;;;;;;;2.75;1.88;;;;;;;6.04;100.00;99633.22;5275137;28;20032;-77
2024/02/24 08:04:14;;;;;;;2.90;1.90;;;;;;;6.03;100.00;99630.75;5281027;28;20032;-77
2024/02/24 08:06:46;;;;;;;2.47;1.98;;;;;;;6.00;100.00;99631.81;5273718;28;20048;-77
2024/02/24 08:09:18;;;;;;;3.38;1.83;;;;;;;5.97;100.00;99632.09;5279654;28;20053;-77
2024/02/24 08:11:51;;;;;;;2.97;1.92;;;;;;;5.83;100.00;99625.44;5274139;28;20062;-77
2024/02/24 08:14:23;;;;;;;2.80;2.10;;;;;;;5.94;100.00;99627.13;5281971;28;20044;-77
2024/02/24 08:16:55;;;;;;;3.33;1.83;;;;;;;6.02;100.00;99634.28;5284128;28;20032;-77
2024/02/24 08:19:27;;;;;;;3.40;2.00;;;;;;;5.99;100.00;99630.19;5274795;28;20036;-77
2024/02/24 08:22:00;;;;;;;3.42;2.30;;;;;;;6.09;100.00;99646.63;5279733;28;20031;-77
2024/02/24 08:24:32;;;;;;;2.88;2.30;;;;;;;6.00;100.00;99637.03;5280799;28;20027;-77
2024/02/24 08:27:04;;;;;;;4.90;2.42;;;;;;;6.04;100.00;99655.78;5278353;28;20449;-77
2024/02/24 08:29:36;;;;;;;4.30;2.25;;;;;;;6.09;100.00;99651.84;5281082;28;20028;-77
2024/02/24 08:32:08;;;;;;;3.75;2.60;;;;;;;6.07;100.00;99656.34;5280987;28;20583;-77
2024/02/24 08:34:40;;;;;;;4.47;3.03;;;;;;;6.02;100.00;99662.88;5283210;28;20755;-77
2024/02/24 08:37:12;;;;;;;4.18;3.08;;;;;;;6.04;100.00;99664.41;5280959;28;20409;-77
2024/02/24 08:39:44;;;;;;;5.15;3.33;;;;;;;5.92;100.00;99649.00;5279371;28;20043;-77
2024/02/24 08:42:16;;;;;;;3.72;2.70;;;;;;;5.99;100.00;99676.97;5282465;28;20043;-77
2024/02/24 08:44:48;;;;;;;5.10;3.15;;;;;;;6.03;100.00;99673.16;5284216;28;20386;-77
2024/02/24 08:47:19;;;;;;;6.50;3.03;;;;;;;6.09;100.00;99682.22;5280040;28;20055;-77
2024/02/24 08:49:51;;;;;;;3.88;3.03;;;;;;;6.02;100.00;99671.53;5284932;28;20032;-77
2024/02/24 08:52:23;;;;;;;4.57;2.95;;;;;;;6.05;100.00;99686.03;5287339;28;20038;-77
2024/02/24 08:54:55;;;;;;;4.90;3.00;;;;;;;6.12;100.00;99688.94;5288376;28;20055;-77
2024/02/24 08:57:27;;;;;;;3.85;2.97;;;;;;;6.16;100.00;99687.72;5283577;28;20151;-77
2024/02/24 08:59:59;;;;;;;4.18;2.83;;;;;;;6.24;100.00;99690.50;5283625;28;20359;-76
2024/02/24 09:02:31;;;;;;;3.30;3.00;;;;;;;6.21;100.00;99686.41;5283036;28;20040;-77
2024/02/24 09:05:03;;;;;;;4.15;3.00;;;;;;;6.20;100.00;99695.13;5285274;28;20042;-77
2024/02/24 09:07:35;;;;;;;5.53;3.17;;;;;;;6.24;100.00;99701.72;5284682;28;20523;-77
2024/02/24 09:10:08;;;;;;;4.22;3.30;;;;;;;6.22;100.00;99705.41;5278944;28;20031;-76
2024/02/24 09:12:40;;;;;;;4.13;2.78;;;;;;;6.24;100.00;99708.69;5283685;28;20043;-77
2024/02/24 09:15:12;;;;;;;4.13;3.10;;;;;;;6.25;100.00;99708.59;5284099;28;20036;-77
2024/02/24 09:17:44;;;;;;;4.05;3.10;;;;;;;6.25;100.00;99713.78;5280157;28;20028;-77
2024/02/24 09:20:15;;;;;;;4.18;3.05;;;;;;;6.29;100.00;99707.38;5262201;28;20816;-77
2024/02/24 09:22:49;;;;;;;4.80;3.40;;;;;;;6.34;100.00;99712.19;5282343;28;20027;-77
2024/02/24 09:25:21;;;;;;;4.45;2.97;;;;;;;6.39;100.00;99720.41;5282297;28;20039;-77
2024/02/24 09:27:53;;;;;;;4.90;2.90;;;;;;;6.28;100.00;99705.69;5281758;28;20039;-76
2024/02/24 09:30:25;;;;;;;6.10;3.58;;;;;;;6.31;100.00;99722.84;5280406;28;20032;-76
2024/02/24 09:32:59;;;;;;;3.57;2.87;;;;;;;6.34;100.00;99725.19;5284352;28;20036;-77
2024/02/24 09:35:30;;;;;;;;;;;;;;;6.81;100.00;99730.66;5284350;28;20752;-77
2024/02/24 09:38:02;;;;;;;3.92;2.92;;;;;;;6.43;100.00;99731.38;5282465;28;20443;-77
2024/02/24 09:40:34;;;;;;;5.18;2.65;;;;;;;6.38;100.00;99736.97;5283409;28;20040;-77
2024/02/24 09:43:08;;;;;;;4.60;2.88;;;;;;;6.34;100.00;99722.56;5282121;28;20115;-76
2024/02/24 09:45:47;;;;;;;3.85;2.95;;;;;;;6.52;100.00;99731.41;5283302;28;20036;-75
2024/02/24 09:48:22;;;;;;;5.20;2.92;;;;;;;6.43;100.00;99737.38;5276387;28;20031;-76
2024/02/24 09:50:54;;;;;;;6.28;3.08;;;;;;;6.45;100.00;99745.09;5257074;28;20044;-76
2024/02/24 09:53:26;;;;;;;5.70;2.63;;;;;;;6.38;100.00;99729.16;5280968;28;20031;-77
2024/02/24 09:55:59;;;;;;;5.00;2.80;;;;;;;6.51;100.00;99728.94;5284217;28;20048;-76
2024/02/24 09:58:33;;;;;;;3.05;2.58;;;;;;;6.65;100.00;99746.78;5266279;28;20350;-76
2024/02/24 10:01:05;;;;;;;3.22;2.38;;;;;;;6.60;100.00;99748.97;5284857;28;20469;-76
2024/02/24 10:03:40;;;;;;;4.03;2.22;;;;;;;6.65;100.00;99743.38;5284305;28;20050;-77
2024/02/24 10:06:12;;;;;;;3.70;2.35;;;;;;;6.72;100.00;99747.09;5288992;28;20039;-77
2024/02/24 10:08:44;;;;;;;4.07;2.25;;;;;;;6.92;100.00;99753.19;5267770;28;20048;-76
2024/02/24 10:11:16;;;;;;;5.05;2.20;;;;;;;7.10;100.00;99753.34;5288690;28;20053;-77
2024/02/24 10:13:48;;;;;;;6.13;2.10;;;;;;;7.18;100.00;99761.31;5289190;28;20064;-76
2024/02/24 10:16:23;;;;;;;3.38;1.80;;;;;;;7.24;100.00;99761.59;5283693;28;20283;-77
2024/02/24 10:18:55;;;;;;;4.13;1.67;;;;;;;7.24;100.00;99769.44;5284818;28;20501;-76
2024/02/24 10:21:27;;;;;;;2.90;1.67;;;;;;;7.36;100.00;99771.91;5281898;28;20046;-77
2024/02/24 10:24:00;;;;;;;2.85;1.60;;;;;;;7.45;100.00;99766.69;5286216;28;20042;-77
2024/02/24 10:26:32;;;;;;;2.28;1.40;;;;;;;7.48;100.00;99770.81;5286050;28;20040;-76
2024/02/24 10:29:07;;;;;;;2.97;1.10;;;;;;;7.49;100.00;99769.84;5286955;28;20047;-77
2024/02/24 10:31:39;;;;;;;3.45;1.63;;;;;;;7.48;100.00;99770.81;5288890;28;20482;-77
2024/02/24 10:34:12;;;;;;;4.75;1.77;;;;;;;7.56;100.00;99774.38;5289207;28;20036;-78
2024/02/24 10:36:47;;;;;;;2.00;1.10;;;;;;;7.75;100.00;99783.97;5289604;28;20210;-75
2024/02/24 10:39:19;;;;;;;4.28;1.42;;;;;;;7.73;100.00;99780.69;5289022;28;20027;-76
2024/02/24 10:41:52;;;;;;;5.28;1.73;;;;;;;7.98;100.00;99774.06;5284801;28;20507;-76
2024/02/24 10:44:24;;;;;;;2.78;1.30;;;;;;;8.16;100.00;99789.00;5288510;28;20044;-76
2024/02/24 10:46:56;;;;;;;4.40;1.10;;;;;;;8.14;100.00;99793.53;5289168;28;20039;-77
2024/02/24 10:49:29;;;;;;;2.53;0.90;;;;;;;8.05;100.00;99782.97;5285619;28;20036;-76
2024/02/24 10:52:01;;;;;;;3.08;0.77;;;;;;;8.04;100.00;99791.78;5288196;28;20036;-76
2024/02/24 10:54:34;;;;;;;5.50;1.30;;;;;;;7.90;100.00;99783.56;5287788;28;20627;-77
2024/02/24 10:57:06;;;;;;;;;;;;;;;8.42;100.00;99808.34;5284848;28;20036;-76
2024/02/24 10:59:38;;;;;;;4.13;1.25;;;;;;;7.86;100.00;99795.22;5286476;28;19943;-76
2024/02/24 11:02:11;;;;;;;2.28;1.27;;;;;;;7.85;100.00;99806.63;5287192;28;20031;-75
2024/02/24 11:04:44;;;;;;;;;;;;;;;8.34;100.00;99804.78;5286950;28;20047;-75
2024/02/24 11:07:23;;;;;;;3.05;1.23;;;;;;;7.92;100.00;99805.94;5286542;28;19916;-75
2024/02/24 11:09:55;;;;;;;3.60;1.40;;;;;;;7.95;100.00;99804.81;5289202;28;20129;-76
2024/02/24 11:12:27;;;;;;;3.67;1.27;;;;;;;7.86;100.00;99808.28;5289568;28;20401;-77
2024/02/24 11:14:59;;;;;;;4.70;1.63;;;;;;;7.91;100.00;99808.66;5285743;28;20031;-76
2024/02/24 11:17:51;;;;;;;3.95;1.42;;;;;;;8.18;100.00;99811.41;5287213;28;20457;-77
2024/02/24 11:20:38;;;;;;;3.25;1.35;;;;;;;8.09;100.00;99808.81;5269439;28;20047;-76
2024/02/24 11:23:22;;;;;;;2.92;1.20;;;;;;;8.04;100.00;99820.47;5285260;28;20037;-77
2024/02/24 11:26:12;;;;;;;2.75;1.20;;;;;;;8.19;100.00;99820.06;5285820;28;20036;-77
2024/02/24 11:28:46;;;;;;;3.72;1.20;;;;;;;7.96;100.00;99833.38;5286755;28;20041;-77
2024/02/24 11:31:29;;;;;;;4.03;1.35;;;;;;;8.13;100.00;99834.47;5289088;28;20385;-77
2024/02/24 11:34:09;;;;;;;6.65;1.50;;;;;;;8.17;100.00;99835.81;5285257;28;20035;-76
2024/02/24 11:36:41;;;;;;;3.35;1.25;;;;;;;8.02;100.00;99832.00;5284936;28;20036;-76
2024/02/24 11:39:15;;;;;;;4.07;1.23;;;;;;;8.03;100.00;99838.84;5286617;28;20409;-77
2024/02/24 11:41:50;;;;;;;2.50;1.30;;;;;;;8.00;100.00;99841.75;5287435;28;20058;-77
2024/02/24 11:44:22;;;;;;;3.58;1.40;;;;;;;7.99;100.00;99832.28;5286931;28;20032;-76
2024/02/24 11:46:56;;;;;;;2.13;1.20;;;;;;;8.16;100.00;99839.41;5287500;28;20523;-77
2024/02/24 11:49:28;;;;;;;4.22;1.35;;;;;;;8.31;100.00;99845.03;5287373;28;20039;-76
2024/02/24 11:51:59;;;;;;;3.70;1.10;;;;;;;8.36;100.00;99840.19;5284412;28;20032;-76
2024/02/24 11:54:35;;;;;;;2.88;1.40;;;;;;;8.37;100.00;99825.34;5287224;28;20039;-76
2024/02/24 11:57:07;;;;;;;3.22;1.17;;;;;;;8.41;100.00;99840.66;5249238;28;1059027;-75
2024/02/24 11:59:40;;;;;;;3.92;1.58;;;;;;;8.56;100.00;99842.78;5288289;28;20040;-77